Etusivu
METAR-TAF:

METAR-TAF

Lentoasemat :

Khartum, Sudan

Leveyspiiri: 15-36N, Pituuspiiri: 032-33E, korkeus merenpinnasta: 382 m

Tämänhetkinen sää

Tämä raportti tehtiin 27 minuuttia sitten, kello 21.00 UTC
Tuuli 3 kn lounaasta
Lämpötila 30°C
Kosteus 55%
Ilmanpaine 1011 hPa
Näkyvyys 10 km tai enemmän
ei pilviä alle 1500 m:ssä eikä cumulonimbus-pilviä

METAR: HSSS 172100Z 23003KT CAVOK 30/20 Q1011 NOSIG

Aika: 00:27 (21:27 UTC)

Sääennuste

Tämä raportti tehtiin 4 tuntia ja 27 minuuttia sitten, kello 17.00 UTC
Ennuste voimassa 17. päivästä klo 18 UTC - 18. päivään klo 24 UTC
Tuuli 10 kn etelästä puuskistuen 20 kn:hen
Näkyvyys 10 km tai enemmän
Muutamia pilviä 4000 ft:n korkeudessa
Hajanaisia pilviä 14000 ft:n korkeudessa
Ajoittain
17. päivästä klo 18 UTC - 17. päivään klo 23 UTC
Näkyvyys: 6000 m
Muutamia pilviä 4500 ft:n korkeudessa, Cumulonimbus.
ukkosmyrsky, sadetta

TAF: HSSS 171700Z 1718/1824 18010G20KT 9999 FEW040 SCT140 TEMPO 1718/1723 6000 TSRA FEW045CB

Säähavainnot ja -ennusteet yli 4000 lentoasemalta (METAR- ja TAF-raportit).

Käytössä olevat sääasemat on merkitty karttaan keltaisilla ja punaisilla pisteillä.

Aseta hiiri pisteen päälle nähdäksesi sääaseman nimen.

Klikkaa sitten nähdäksesi säähavainnot ja -ennusteet.

Kartan vaihtaminen: klikkaa mustalla rastilla varustettuja vihreitä pisteitä, niin voit zoomata sisään; viivalla varustettua vihreää pistettä, niin voit zoomata ulos tai vihreitä nuolia, niin pääset viereisille kartoille.


METAR-TAF: